Le Sueur, Minnesota
Current Conditions -  °F | °C
As of 10:35 AM on Sunday 21 Dec 2014 (Local Time) from KMKT Reporting Station
Overcast Overcast  
Wind Chill: 28°   Ceiling: 300
Heat Index: 36°   Visibility: 1.5mi
Dew Point: 32°   Wind: 12mph
Humidity: 87%   Direction: 180°S
Pressure: 29.83"   Gusts: NA
Location:  44.46°N, 93.92°W
Report Text: KMKT 211635Z AUTO 18010KT 1 1/2SM OVC003 02/00 A2983 RMK AO1
Loading
Personal Weather Stations






























Interactive Weather Map New forecast layout! Learn more

10-Day Weather Forecast

Advertisements
Track Severe Weather on mobile